^^
Weerstation Genderen Historische Gegevens
 
Daily Summary for February 04, 2023 Units:  Metric    English   Both
Daily Weekly Monthly Yearly
  Current: High: Low: Average:
Temperature: 6.2 °C 6.8 °C 6.2 °C 6.6 °C
Dew Point: -19.4 °C -8 °C -19.4 °C -15 °C
Humidity: 14% 34% 14% 20%
Wind Speed: 4.8km/h 11km/h 4.5km/h 6.9km/h
Wind Gust: 8km/h 12.9km/h - -
WindNW - - WNW
Pressure: 1032.9 hPa 1033.0 hPa 1031.9 hPa -
Precipitation: 0.0 mm      
 
 
Tabular Data for February 04, 2023
Time Temperature Dew Point Pressure Wind Wind Speed Wind Gust Humidity Rainfall Rate (Hourly) solar
00:04 6.8 °C -8 °C 1031.9 hPa NW 10.2 km/h 12.9 km/h 34% 0.0 mm W/m2
00:09 6.8 °C -8.4 °C 1031.9 hPa NW 11 km/h 11.3 km/h 32.9% 0.0 mm W/m2
00:14 6.8 °C -9 °C 1032.1 hPa WNW 9.4 km/h 12.9 km/h 31.6% 0.0 mm W/m2
00:19 6.8 °C -9.5 °C 1032.2 hPa WNW 8.6 km/h 12.9 km/h 30.4% 0.0 mm W/m2
00:24 6.8 °C -10.1 °C 1032.2 hPa WNW 8.1 km/h 11.3 km/h 29% 0.0 mm W/m2
00:29 6.8 °C -10.4 °C 1032.2 hPa WNW 9.3 km/h 9.7 km/h 28.3% 0.0 mm W/m2
00:34 6.8 °C -10.9 °C 1032.1 hPa WNW 6.9 km/h 11.3 km/h 27% 0.0 mm W/m2
00:39 6.8 °C -11.2 °C 1032.1 hPa NW 7.8 km/h 8 km/h 26.5% 0.0 mm W/m2
00:44 6.8 °C -11.6 °C 1032.2 hPa NW 9.1 km/h 11.3 km/h 25.6% 0.0 mm W/m2
00:49 6.7 °C -12.1 °C 1032.2 hPa NW 6.7 km/h 9.7 km/h 24.7% 0.0 mm W/m2
00:54 6.8 °C -12.5 °C 1032.2 hPa WNW 7.2 km/h 8 km/h 24% 0.0 mm W/m2
00:59 6.8 °C -12.9 °C 1032.2 hPa WNW 7.5 km/h 8 km/h 23.1% 0.0 mm W/m2
01:04 6.8 °C -13.4 °C 1032.2 hPa WNW 8.2 km/h 9.7 km/h 22.2% 0.0 mm W/m2
01:09 6.8 °C -13.6 °C 1032.2 hPa WNW 7.4 km/h 9.7 km/h 21.8% 0.0 mm W/m2
01:14 6.8 °C -14.2 °C 1032.2 hPa WNW 7.2 km/h 8 km/h 20.8% 0.0 mm W/m2
01:19 6.8 °C -14.7 °C 1032.3 hPa WNW 6.5 km/h 9.7 km/h 20% 0.0 mm W/m2
01:24 6.8 °C -15.1 °C 1032.3 hPa WNW 7.2 km/h 9.7 km/h 19.3% 0.0 mm W/m2
01:29 6.8 °C -15.3 °C 1032.3 hPa WNW 7.2 km/h 9.7 km/h 19% 0.0 mm W/m2
01:34 6.8 °C -15.9 °C 1032.3 hPa WNW 6.5 km/h 8 km/h 18.1% 0.0 mm W/m2
01:39 6.7 °C -16 °C 1032.3 hPa WNW 8 km/h 8 km/h 18% 0.0 mm W/m2
01:44 6.7 °C -16.7 °C 1032.3 hPa WNW 5.5 km/h 9.7 km/h 17% 0.0 mm W/m2
01:49 6.7 °C -16.7 °C 1032.3 hPa WNW 6.7 km/h 6.4 km/h 17% 0.0 mm W/m2
01:54 6.7 °C -16.8 °C 1032.3 hPa WNW 6.8 km/h 9.7 km/h 16.9% 0.0 mm W/m2
01:59 6.7 °C -17.4 °C 1032.4 hPa WNW 6.6 km/h 8 km/h 16% 0.0 mm W/m2
02:04 6.7 °C -17.4 °C 1032.4 hPa WNW 5.6 km/h 8 km/h 16% 0.0 mm W/m2
02:09 6.6 °C -17.5 °C 1032.5 hPa NW 7 km/h 8 km/h 16% 0.0 mm W/m2
02:14 6.6 °C -17.5 °C 1032.5 hPa WNW 5.7 km/h 8 km/h 16% 0.0 mm W/m2
02:19 6.6 °C -17.8 °C 1032.6 hPa WNW 5.7 km/h 6.4 km/h 15.6% 0.0 mm W/m2
02:24 6.5 °C -18.3 °C 1032.6 hPa West 5.6 km/h 6.4 km/h 15% 0.0 mm W/m2
02:29 6.5 °C -18.4 °C 1032.7 hPa West 4.7 km/h 6.4 km/h 15% 0.0 mm W/m2
02:34 6.4 °C -18.4 °C 1032.7 hPa WNW 5.4 km/h 6.4 km/h 15% 0.0 mm W/m2
02:39 6.4 °C -18.5 °C 1032.7 hPa WNW 4.5 km/h 8 km/h 14.8% 0.0 mm W/m2
02:44 6.4 °C -19.2 °C 1032.8 hPa WNW 4.8 km/h 6.4 km/h 14% 0.0 mm W/m2
02:49 6.3 °C -18.5 °C 1032.8 hPa WNW 4.9 km/h 6.4 km/h 15% 0.0 mm W/m2
02:54 6.3 °C -18.6 °C 1032.8 hPa WNW 4.7 km/h 4.8 km/h 15% 0.0 mm W/m2
02:59 6.2 °C -18.9 °C 1032.9 hPa WNW 5.9 km/h 6.4 km/h 14.6% 0.0 mm W/m2
03:04 6.2 °C -19.4 °C 1033.0 hPa NW 7.5 km/h 8 km/h 14% 0.0 mm W/m2
03:05 6.2 °C -19.4 °C 1032.9 hPa NW 4.8 km/h 8 km/h 14% 0.0 mm W/m2
Genderen, Netherlands, EU
Compliments of Weather Underground - 2 mb